createdAt,value
2019-02-24T00:00:02.117Z,0.00
2019-02-24T00:01:02.069Z,0.00
2019-02-24T00:02:02.045Z,0.00
2019-02-24T00:03:01.980Z,0.00
2019-02-24T00:04:01.955Z,0.00
2019-02-24T00:05:01.904Z,0.00
2019-02-24T00:06:01.849Z,0.00
2019-02-24T00:07:01.828Z,0.00
2019-02-24T00:08:01.759Z,0.00
2019-02-24T00:09:01.712Z,0.00
2019-02-24T00:10:01.673Z,0.00
2019-02-24T00:11:01.634Z,0.00
2019-02-24T00:12:01.599Z,0.00
2019-02-24T00:13:01.561Z,0.00
2019-02-24T00:14:01.488Z,0.00
2019-02-24T00:15:01.447Z,0.00
2019-02-24T00:16:01.411Z,0.00
2019-02-24T00:17:01.369Z,0.00
2019-02-24T00:18:01.317Z,0.00
2019-02-24T00:19:01.298Z,0.00
2019-02-24T00:20:01.232Z,0.00
2019-02-24T00:21:01.174Z,0.00
2019-02-24T00:22:01.132Z,0.00
2019-02-24T00:23:01.087Z,0.00
2019-02-24T00:24:01.073Z,0.00
2019-02-24T00:25:01.063Z,0.00
2019-02-24T00:26:00.999Z,0.00
2019-02-24T00:27:00.909Z,0.00
2019-02-24T00:28:06.995Z,0.00
2019-02-24T00:29:00.841Z,0.00
2019-02-24T00:30:00.776Z,0.00
2019-02-24T00:31:00.733Z,0.00
2019-02-24T00:32:00.678Z,0.00
2019-02-24T00:33:00.637Z,0.00
2019-02-24T00:34:00.619Z,0.00
2019-02-24T00:35:00.557Z,0.00
2019-02-24T00:36:00.505Z,0.00
2019-02-24T00:37:09.775Z,0.00
2019-02-24T00:38:00.436Z,0.00
2019-02-24T00:39:00.362Z,0.00
2019-02-24T00:40:00.354Z,0.00
2019-02-24T00:41:00.279Z,0.00
2019-02-24T00:42:00.228Z,0.00
2019-02-24T00:43:00.181Z,0.00
2019-02-24T00:44:00.161Z,0.00
2019-02-24T00:45:00.142Z,0.00
2019-02-24T00:46:00.052Z,0.00
2019-02-24T00:47:00.006Z,0.00
2019-02-24T00:47:59.963Z,0.00
2019-02-24T00:48:59.944Z,0.00
2019-02-24T00:49:59.866Z,0.00
2019-02-24T00:50:59.820Z,0.00
2019-02-24T00:51:59.774Z,0.00
2019-02-24T00:52:59.729Z,0.00
2019-02-24T00:53:59.718Z,0.00
2019-02-24T00:54:59.645Z,0.00
2019-02-24T00:55:59.593Z,0.00
2019-02-24T00:56:59.551Z,0.00
2019-02-24T00:57:59.512Z,0.00
2019-02-24T00:58:59.465Z,0.00
2019-02-24T00:59:59.448Z,0.00
2019-02-24T01:00:59.374Z,0.00
2019-02-24T01:01:59.979Z,0.00
2019-02-24T01:02:59.277Z,0.00
2019-02-24T01:03:59.234Z,0.00
2019-02-24T01:04:59.210Z,0.00
2019-02-24T01:05:59.172Z,0.00
2019-02-24T01:06:59.103Z,0.00
2019-02-24T01:07:59.057Z,0.00
2019-02-24T01:08:59.013Z,0.00
2019-02-24T01:09:58.961Z,0.00
2019-02-24T01:10:58.939Z,0.00
2019-02-24T01:11:58.877Z,0.00
2019-02-24T01:12:58.833Z,0.00
2019-02-24T01:13:58.786Z,0.00
2019-02-24T01:14:58.762Z,0.00
2019-02-24T01:15:58.686Z,0.00
2019-02-24T01:16:58.644Z,0.00
2019-02-24T01:17:58.608Z,0.00
2019-02-24T01:18:58.560Z,0.00
2019-02-24T01:19:58.518Z,0.00
2019-02-24T01:20:58.500Z,0.00
2019-02-24T01:21:58.419Z,0.00
2019-02-24T01:22:58.376Z,0.00
2019-02-24T01:23:58.325Z,0.00
2019-02-24T01:24:58.282Z,0.00
2019-02-24T01:25:58.273Z,0.00
2019-02-24T01:26:58.199Z,0.00
2019-02-24T01:27:58.148Z,0.00
2019-02-24T01:28:58.106Z,0.00
2019-02-24T01:29:58.063Z,0.00
2019-02-24T01:30:58.021Z,0.00
2019-02-24T01:31:57.997Z,0.00
2019-02-24T01:32:57.927Z,0.00
2019-02-24T01:33:57.876Z,0.00
2019-02-24T01:34:57.831Z,0.00
2019-02-24T01:35:57.787Z,0.00
2019-02-24T01:36:57.764Z,0.00
2019-02-24T01:37:57.702Z,0.00
2019-02-24T01:38:57.662Z,0.00
2019-02-24T01:39:57.614Z,0.00
2019-02-24T01:40:57.566Z,0.00
2019-02-24T01:41:57.539Z,0.00
2019-02-24T01:42:57.467Z,0.00
2019-02-24T01:43:57.433Z,0.00
2019-02-24T01:44:57.388Z,0.00
2019-02-24T01:45:57.334Z,0.00
2019-02-24T01:46:57.313Z,0.00
2019-02-24T01:47:57.275Z,0.00
2019-02-24T01:48:57.199Z,0.00
2019-02-24T01:49:57.161Z,0.00
2019-02-24T01:50:57.114Z,0.00
2019-02-24T01:51:57.109Z,0.00
2019-02-24T01:52:57.025Z,0.00
2019-02-24T01:53:56.995Z,0.00
2019-02-24T01:54:56.929Z,0.00
2019-02-24T01:55:56.888Z,0.00
2019-02-24T01:56:56.838Z,0.00
2019-02-24T01:57:56.824Z,0.00
2019-02-24T01:58:56.778Z,0.00
2019-02-24T01:59:56.702Z,0.00
2019-02-24T02:00:56.659Z,0.00
2019-02-24T02:01:56.622Z,0.00
2019-02-24T02:02:56.596Z,0.00
2019-02-24T02:03:56.529Z,0.00
2019-02-24T02:04:56.514Z,0.00
2019-02-24T02:05:56.434Z,0.00
2019-02-24T02:06:56.389Z,0.00
2019-02-24T02:07:56.344Z,0.00
2019-02-24T02:08:56.320Z,0.00
2019-02-24T02:09:56.283Z,0.00
2019-02-24T02:10:56.216Z,0.00
2019-02-24T02:11:56.168Z,0.00
2019-02-24T02:12:57.380Z,0.00
2019-02-24T02:13:56.073Z,0.00
2019-02-24T02:14:56.049Z,0.00
2019-02-24T02:15:55.989Z,0.00
2019-02-24T02:16:55.983Z,0.00
2019-02-24T02:17:55.894Z,0.00
2019-02-24T02:18:55.869Z,0.00
2019-02-24T02:19:55.823Z,0.00
2019-02-24T02:20:55.758Z,0.00
2019-02-24T02:21:55.720Z,0.00
2019-02-24T02:22:55.673Z,0.00
2019-02-24T02:23:55.631Z,0.00
2019-02-24T02:24:55.605Z,0.00
2019-02-24T02:25:55.534Z,0.00
2019-02-24T02:26:55.496Z,0.00
2019-02-24T02:27:55.442Z,0.00
2019-02-24T02:28:55.423Z,0.00
2019-02-24T02:29:55.379Z,0.00
2019-02-24T02:30:55.312Z,0.00
2019-02-24T02:31:55.265Z,0.00
2019-02-24T02:32:55.215Z,0.00
2019-02-24T02:33:55.179Z,0.00
2019-02-24T02:34:55.155Z,0.00
2019-02-24T02:35:55.088Z,0.00
2019-02-24T02:36:55.046Z,0.00
2019-02-24T02:37:54.991Z,0.00
2019-02-24T02:38:54.967Z,0.00
2019-02-24T02:39:54.899Z,0.00
2019-02-24T02:40:54.853Z,0.00
2019-02-24T02:41:54.816Z,0.00
2019-02-24T02:42:54.777Z,0.00
2019-02-24T02:43:54.749Z,0.00
2019-02-24T02:44:54.686Z,0.00
2019-02-24T02:45:54.649Z,0.00
2019-02-24T02:46:54.582Z,0.00
2019-02-24T02:47:54.545Z,0.00
2019-02-24T02:48:54.500Z,0.00
2019-02-24T02:49:54.472Z,0.00
2019-02-24T02:50:54.427Z,0.00
2019-02-24T02:51:54.359Z,0.00
2019-02-24T02:52:54.312Z,0.00
2019-02-24T02:53:54.297Z,0.00
2019-02-24T02:54:54.231Z,0.00
2019-02-24T02:55:54.210Z,0.00
2019-02-24T02:56:54.143Z,0.00
2019-02-24T02:57:54.088Z,0.00
2019-02-24T02:58:54.779Z,0.00
2019-02-24T02:59:54.003Z,0.00
2019-02-24T03:00:53.979Z,0.00
2019-02-24T03:01:53.916Z,0.00
2019-02-24T03:02:53.868Z,0.00
2019-02-24T03:03:53.816Z,0.00
2019-02-24T03:04:53.776Z,0.00
2019-02-24T03:05:53.732Z,0.00
2019-02-24T03:06:53.713Z,0.00
2019-02-24T03:07:53.645Z,0.00
2019-02-24T03:08:53.620Z,0.00
2019-02-24T03:09:53.543Z,0.00
2019-02-24T03:10:53.506Z,0.00
2019-02-24T03:11:53.476Z,0.00
2019-02-24T03:12:53.409Z,0.00
2019-02-24T03:13:53.396Z,0.00
2019-02-24T03:14:53.328Z,0.00
2019-02-24T03:15:53.282Z,0.00
2019-02-24T03:16:53.259Z,0.00
2019-02-24T03:17:53.184Z,0.00
2019-02-24T03:18:53.167Z,0.00
2019-02-24T03:19:53.102Z,0.00
2019-02-24T03:20:53.058Z,0.00
2019-02-24T03:21:53.003Z,0.00
2019-02-24T03:22:52.989Z,0.00
2019-02-24T03:23:52.915Z,0.00
2019-02-24T03:24:52.869Z,0.00
2019-02-24T03:25:52.831Z,0.00
2019-02-24T03:26:52.816Z,0.00
2019-02-24T03:27:52.743Z,0.00
2019-02-24T03:28:52.692Z,0.00
2019-02-24T03:29:52.646Z,0.00
2019-02-24T03:30:52.614Z,0.00
2019-02-24T03:31:52.554Z,0.00
2019-02-24T03:32:52.538Z,0.00
2019-02-24T03:33:52.474Z,0.00
2019-02-24T03:34:52.421Z,0.00
2019-02-24T03:35:52.368Z,0.00
2019-02-24T03:36:52.324Z,0.00
2019-02-24T03:37:52.287Z,0.00
2019-02-24T03:38:52.264Z,0.00
2019-02-24T03:39:52.195Z,0.00
2019-02-24T03:40:52.149Z,0.00
2019-02-24T03:41:52.099Z,0.00
2019-02-24T03:42:52.065Z,0.00
2019-02-24T03:43:52.030Z,0.00
2019-02-24T03:44:51.961Z,0.00
2019-02-24T03:45:51.920Z,0.00
2019-02-24T03:46:51.878Z,0.00
2019-02-24T03:47:51.831Z,0.00
2019-02-24T03:48:51.817Z,0.00
2019-02-24T03:49:51.733Z,0.00
2019-02-24T03:50:51.689Z,0.00
2019-02-24T03:51:51.651Z,0.00
2019-02-24T03:52:51.603Z,0.00
2019-02-24T03:53:51.550Z,0.00
2019-02-24T03:54:51.528Z,0.00
2019-02-24T03:55:51.514Z,0.00
2019-02-24T03:56:51.418Z,0.00
2019-02-24T03:57:51.378Z,0.00
2019-02-24T03:58:51.333Z,0.00
2019-02-24T03:59:51.309Z,0.00
2019-02-24T04:00:51.239Z,0.00
2019-02-24T04:01:51.187Z,0.00
2019-02-24T04:02:51.147Z,0.00
2019-02-24T04:03:51.098Z,0.00
2019-02-24T04:04:51.081Z,0.00
2019-02-24T04:05:51.015Z,0.00
2019-02-24T04:06:50.969Z,0.00
2019-02-24T04:07:50.916Z,0.00
2019-02-24T04:08:50.867Z,0.00
2019-02-24T04:09:50.832Z,0.00
2019-02-24T04:10:50.810Z,0.00
2019-02-24T04:11:50.743Z,0.00
2019-02-24T04:12:50.693Z,0.00
2019-02-24T04:13:50.640Z,0.00
2019-02-24T04:14:50.633Z,0.00
2019-02-24T04:15:50.575Z,0.00
2019-02-24T04:16:50.507Z,0.00
2019-02-24T04:17:50.475Z,0.00
2019-02-24T04:18:50.422Z,0.00
2019-02-24T04:19:50.376Z,0.00
2019-02-24T04:20:50.352Z,0.00
2019-02-24T04:21:50.280Z,0.00
2019-02-24T04:22:50.232Z,0.00
2019-02-24T04:23:50.193Z,0.00
2019-02-24T04:24:50.152Z,0.00
2019-02-24T04:25:50.121Z,0.00
2019-02-24T04:26:50.055Z,0.00
2019-02-24T04:27:50.038Z,0.00
2019-02-24T04:28:49.962Z,0.00
2019-02-24T04:29:49.930Z,0.00
2019-02-24T04:30:49.923Z,0.00
2019-02-24T04:31:49.832Z,0.00
2019-02-24T04:32:49.785Z,0.00
2019-02-24T04:33:49.739Z,0.00
2019-02-24T04:34:49.686Z,0.00
2019-02-24T04:35:49.642Z,0.00
2019-02-24T04:36:49.619Z,0.00
2019-02-24T04:37:49.559Z,0.00
2019-02-24T04:38:49.510Z,0.00
2019-02-24T04:39:49.464Z,0.00
2019-02-24T04:40:49.413Z,0.00
2019-02-24T04:41:49.399Z,0.00
2019-02-24T04:42:49.334Z,0.00
2019-02-24T04:43:49.291Z,0.00
2019-02-24T04:44:49.244Z,0.00
2019-02-24T04:45:49.186Z,0.00
2019-02-24T04:46:49.174Z,0.00
2019-02-24T04:47:49.097Z,0.00
2019-02-24T04:48:49.053Z,0.00
2019-02-24T04:49:49.013Z,0.00
2019-02-24T04:50:48.965Z,0.00
2019-02-24T04:51:48.922Z,0.00
2019-02-24T04:52:48.902Z,0.00
2019-02-24T04:53:48.895Z,0.00
2019-02-24T04:54:48.779Z,0.00
2019-02-24T04:55:48.740Z,0.00
2019-02-24T04:56:48.695Z,0.00
2019-02-24T04:57:48.645Z,0.00
2019-02-24T04:58:48.624Z,0.00
2019-02-24T04:59:48.553Z,0.00
2019-02-24T05:00:48.505Z,0.00
2019-02-24T05:01:48.465Z,0.00
2019-02-24T05:02:48.421Z,0.00
2019-02-24T05:03:48.400Z,0.00
2019-02-24T05:04:48.332Z,0.00
2019-02-24T05:05:48.278Z,0.00
2019-02-24T05:06:48.230Z,0.00
2019-02-24T05:07:48.207Z,0.00
2019-02-24T05:08:48.162Z,0.00
2019-02-24T05:09:48.101Z,0.00
2019-02-24T05:10:48.112Z,0.00
2019-02-24T05:11:48.004Z,0.00
2019-02-24T05:12:47.955Z,0.00
2019-02-24T05:13:47.952Z,0.00
2019-02-24T05:14:47.871Z,0.00
2019-02-24T05:15:47.824Z,0.00
2019-02-24T05:16:47.778Z,0.00
2019-02-24T05:17:47.722Z,0.00
2019-02-24T05:18:47.682Z,0.00
2019-02-24T05:19:47.659Z,0.00
2019-02-24T05:20:47.592Z,0.00
2019-02-24T05:21:47.554Z,0.00
2019-02-24T05:22:47.505Z,0.00
2019-02-24T05:23:47.462Z,0.00
2019-02-24T05:24:47.435Z,0.00
2019-02-24T05:25:47.361Z,0.00
2019-02-24T05:26:47.314Z,0.00
2019-02-24T05:27:47.284Z,0.00
2019-02-24T05:28:47.233Z,0.00
2019-02-24T05:29:47.212Z,0.00
2019-02-24T05:30:47.132Z,0.00
2019-02-24T05:31:47.095Z,0.00
2019-02-24T05:32:47.042Z,0.00
2019-02-24T05:33:47.001Z,0.00
2019-02-24T05:34:46.956Z,0.00
2019-02-24T05:35:46.934Z,0.00
2019-02-24T05:36:46.864Z,0.00
2019-02-24T05:37:46.815Z,0.00
2019-02-24T05:38:46.769Z,0.00
2019-02-24T05:39:46.748Z,0.00
2019-02-24T05:40:46.698Z,0.00
2019-02-24T05:41:46.639Z,0.00
2019-02-24T05:42:46.599Z,0.00
2019-02-24T05:43:46.539Z,0.00
2019-02-24T05:44:46.521Z,0.00
2019-02-24T05:45:46.456Z,0.00
2019-02-24T05:46:46.414Z,0.00
2019-02-24T05:47:46.361Z,0.00
2019-02-24T05:48:46.316Z,0.00
2019-02-24T05:49:46.266Z,0.00
2019-02-24T05:50:46.242Z,0.00
2019-02-24T05:51:46.174Z,0.00
2019-02-24T05:52:46.124Z,0.00
2019-02-24T05:53:46.090Z,0.00
2019-02-24T05:54:46.038Z,0.00
2019-02-24T05:55:46.022Z,0.00
2019-02-24T05:56:45.950Z,0.00
2019-02-24T05:57:45.897Z,0.00
2019-02-24T05:58:45.852Z,0.00
2019-02-24T05:59:54.678Z,0.00
2019-02-24T06:00:45.770Z,0.00
2019-02-24T06:01:45.741Z,0.00
2019-02-24T06:02:45.674Z,0.00
2019-02-24T06:03:45.623Z,0.00
2019-02-24T06:04:45.584Z,0.00
2019-02-24T06:05:45.541Z,0.00
2019-02-24T06:06:45.494Z,0.00
2019-02-24T06:07:45.469Z,0.00
2019-02-24T06:08:45.403Z,0.00
2019-02-24T06:09:45.348Z,0.00
2019-02-24T06:10:45.304Z,0.00
2019-02-24T06:11:45.281Z,0.00
2019-02-24T06:12:45.212Z,0.00
2019-02-24T06:13:45.175Z,0.00
2019-02-24T06:14:45.130Z,0.00
2019-02-24T06:15:45.086Z,0.00
2019-02-24T06:16:45.054Z,5.63
2019-02-24T06:17:44.993Z,5.63
2019-02-24T06:18:44.988Z,5.63
2019-02-24T06:19:44.900Z,5.63
2019-02-24T06:20:44.854Z,5.63
2019-02-24T06:21:44.826Z,5.63
2019-02-24T06:22:44.776Z,11.25
2019-02-24T06:23:44.709Z,11.25
2019-02-24T06:24:44.688Z,11.25
2019-02-24T06:25:44.624Z,11.25
2019-02-24T06:26:44.582Z,16.88
2019-02-24T06:27:44.534Z,16.88
2019-02-24T06:28:44.513Z,16.88
2019-02-24T06:29:44.432Z,16.88
2019-02-24T06:30:44.386Z,22.50
2019-02-24T06:31:44.352Z,22.50
2019-02-24T06:32:44.305Z,22.50
2019-02-24T06:33:44.251Z,28.13
2019-02-24T06:34:44.228Z,28.13
2019-02-24T06:35:44.161Z,28.13
2019-02-24T06:36:44.113Z,33.75
2019-02-24T06:37:44.108Z,33.75
2019-02-24T06:38:44.033Z,39.38
2019-02-24T06:39:43.988Z,39.38
2019-02-24T06:40:43.945Z,45.00
2019-02-24T06:41:43.888Z,45.00
2019-02-24T06:42:43.840Z,45.00
2019-02-24T06:43:43.818Z,50.63
2019-02-24T06:44:43.770Z,50.63
2019-02-24T06:45:43.711Z,56.25
2019-02-24T06:46:43.667Z,56.25
2019-02-24T06:47:43.618Z,61.88
2019-02-24T06:48:43.569Z,61.88
2019-02-24T06:49:43.557Z,67.50
2019-02-24T06:50:43.482Z,67.50
2019-02-24T06:51:43.441Z,73.13
2019-02-24T06:52:43.393Z,73.13
2019-02-24T06:53:43.342Z,73.13
2019-02-24T06:54:43.292Z,78.75
2019-02-24T06:55:43.272Z,78.75
2019-02-24T06:56:43.204Z,84.38
2019-02-24T06:57:43.163Z,84.38
2019-02-24T06:58:43.120Z,90.00
2019-02-24T06:59:43.073Z,90.00
2019-02-24T07:00:43.051Z,95.63
2019-02-24T07:01:42.976Z,123.75
2019-02-24T07:02:42.931Z,163.13
2019-02-24T07:03:42.902Z,208.13
2019-02-24T07:04:43.106Z,236.25
2019-02-24T07:05:42.894Z,253.13
2019-02-24T07:06:42.751Z,270.00
2019-02-24T07:07:42.702Z,275.63
2019-02-24T07:08:42.795Z,286.88
2019-02-24T07:09:43.040Z,298.13
2019-02-24T07:10:42.576Z,298.13
2019-02-24T07:11:42.535Z,303.75
2019-02-24T07:12:42.488Z,309.38
2019-02-24T07:13:42.434Z,309.38
2019-02-24T07:14:42.388Z,315.00
2019-02-24T07:15:42.380Z,320.63
2019-02-24T07:16:42.413Z,326.25
2019-02-24T07:17:42.290Z,337.50
2019-02-24T07:18:42.222Z,343.13
2019-02-24T07:19:42.301Z,348.75
2019-02-24T07:20:42.153Z,354.38
2019-02-24T07:21:42.302Z,360.00
2019-02-24T07:22:42.062Z,365.63
2019-02-24T07:23:42.006Z,371.25
2019-02-24T07:24:41.985Z,371.25
2019-02-24T07:25:41.938Z,376.88
2019-02-24T07:26:41.868Z,382.50
2019-02-24T07:27:41.825Z,382.50
2019-02-24T07:28:41.933Z,382.50
2019-02-24T07:29:41.751Z,388.13
2019-02-24T07:30:41.707Z,399.38
2019-02-24T07:31:41.692Z,399.38
2019-02-24T07:32:41.623Z,399.38
2019-02-24T07:33:41.730Z,405.00
2019-02-24T07:34:41.664Z,405.00
2019-02-24T07:35:41.547Z,416.25
2019-02-24T07:36:41.479Z,421.88
2019-02-24T07:37:41.550Z,427.50
2019-02-24T07:38:41.520Z,438.75
2019-02-24T07:39:41.473Z,450.00
2019-02-24T07:40:41.281Z,455.63
2019-02-24T07:41:41.400Z,466.88
2019-02-24T07:42:41.222Z,472.50
2019-02-24T07:43:41.319Z,478.13
2019-02-24T07:44:41.259Z,483.75
2019-02-24T07:45:41.070Z,489.38
2019-02-24T07:46:41.291Z,495.00
2019-02-24T07:47:41.116Z,495.00
2019-02-24T07:48:40.942Z,511.88
2019-02-24T07:49:40.990Z,523.13
2019-02-24T07:50:41.014Z,534.38
2019-02-24T07:51:40.852Z,545.63
2019-02-24T07:52:40.949Z,556.88
2019-02-24T07:53:40.895Z,573.75
2019-02-24T07:54:40.744Z,590.63
2019-02-24T07:55:40.902Z,601.88
2019-02-24T07:56:40.622Z,618.75
2019-02-24T07:57:40.598Z,641.25
2019-02-24T07:58:40.646Z,669.38
2019-02-24T07:59:40.579Z,725.63
2019-02-24T08:00:40.451Z,787.50
2019-02-24T08:01:42.466Z,804.38
2019-02-24T08:02:40.406Z,821.25
2019-02-24T08:03:40.343Z,900.00
2019-02-24T08:04:40.296Z,1040.63
2019-02-24T08:05:40.251Z,1288.13
2019-02-24T08:06:40.427Z,1704.38
2019-02-24T08:07:40.343Z,2143.13
2019-02-24T08:08:40.362Z,2705.63
2019-02-24T08:09:40.264Z,3335.63
2019-02-24T08:10:40.085Z,3735.00
2019-02-24T08:11:40.012Z,3909.38
2019-02-24T08:12:40.001Z,3796.88
2019-02-24T08:13:39.941Z,3273.75
2019-02-24T08:14:39.946Z,2761.88
2019-02-24T08:15:39.910Z,2430.00
2019-02-24T08:16:39.877Z,2233.13
2019-02-24T08:17:39.775Z,2047.50
2019-02-24T08:18:39.758Z,1873.13
2019-02-24T08:19:39.833Z,1777.50
2019-02-24T08:20:39.743Z,1704.38
2019-02-24T08:21:39.725Z,1563.75
2019-02-24T08:22:39.669Z,1518.75
2019-02-24T08:23:39.643Z,1485.00
2019-02-24T08:24:39.612Z,1468.13
2019-02-24T08:25:39.505Z,1473.75
2019-02-24T08:26:39.586Z,1451.25
2019-02-24T08:27:39.498Z,1445.63
2019-02-24T08:28:39.389Z,1440.00
2019-02-24T08:29:39.314Z,1445.63
2019-02-24T08:30:41.918Z,1485.00
2019-02-24T08:31:39.372Z,1507.50
2019-02-24T08:32:39.201Z,1496.25
2019-02-24T08:33:39.166Z,1501.88
2019-02-24T08:34:39.149Z,1485.00
2019-02-24T08:35:39.108Z,1485.00
2019-02-24T08:36:39.046Z,1496.25
2019-02-24T08:37:39.008Z,1456.88
2019-02-24T08:38:40.402Z,1428.75
2019-02-24T08:39:38.934Z,1411.88
2019-02-24T08:40:39.000Z,1389.38
2019-02-24T08:41:38.851Z,1395.00
2019-02-24T08:42:38.818Z,1406.25
2019-02-24T08:43:38.786Z,1389.38
2019-02-24T08:44:38.742Z,1361.25
2019-02-24T08:45:38.752Z,1327.50
2019-02-24T08:46:38.702Z,1276.88
2019-02-24T08:47:38.645Z,1237.50
2019-02-24T08:48:38.601Z,1226.25
2019-02-24T08:49:38.551Z,1248.75
2019-02-24T08:50:38.563Z,1254.38
2019-02-24T08:51:38.479Z,1243.13
2019-02-24T08:52:38.460Z,1276.88
2019-02-24T08:53:38.429Z,1237.50
2019-02-24T08:54:38.378Z,1164.38
2019-02-24T08:55:38.331Z,1147.50
2019-02-24T08:56:38.291Z,1175.63
2019-02-24T08:57:38.285Z,1378.13
2019-02-24T08:58:38.225Z,1395.00
2019-02-24T08:59:38.389Z,1350.00
2019-02-24T09:00:38.149Z,1299.38
2019-02-24T09:01:38.131Z,1327.50
2019-02-24T09:02:38.077Z,1366.88
2019-02-24T09:03:38.038Z,1378.13
2019-02-24T09:04:37.995Z,1355.63
2019-02-24T09:05:37.965Z,1350.00
2019-02-24T09:06:37.926Z,1350.00
2019-02-24T09:07:37.915Z,1321.88
2019-02-24T09:08:37.853Z,1310.63
2019-02-24T09:09:37.808Z,1344.38
2019-02-24T09:10:37.775Z,1378.13
2019-02-24T09:11:37.766Z,1372.50
2019-02-24T09:12:37.738Z,1333.13
2019-02-24T09:13:37.662Z,1276.88
2019-02-24T09:14:37.629Z,1243.13
2019-02-24T09:15:37.595Z,1299.38
2019-02-24T09:16:37.555Z,1383.75
2019-02-24T09:17:37.528Z,1400.63
2019-02-24T09:18:37.519Z,1411.88
2019-02-24T09:19:37.456Z,1406.25
2019-02-24T09:20:37.420Z,1423.13
2019-02-24T09:21:37.384Z,1485.00
2019-02-24T09:22:37.343Z,1518.75
2019-02-24T09:23:37.314Z,1546.88
2019-02-24T09:24:37.311Z,1501.88
2019-02-24T09:25:37.243Z,1490.63
2019-02-24T09:26:37.272Z,1479.38
2019-02-24T09:27:37.173Z,1501.88
2019-02-24T09:28:37.131Z,1535.63
2019-02-24T09:29:37.106Z,1473.75
2019-02-24T09:30:37.089Z,1569.38
2019-02-24T09:31:37.031Z,1603.13
2019-02-24T09:32:36.996Z,1631.25
2019-02-24T09:33:36.954Z,1681.88
2019-02-24T09:34:36.947Z,1636.88
2019-02-24T09:35:36.887Z,1636.88
2019-02-24T09:36:36.898Z,1603.13
2019-02-24T09:37:36.828Z,1625.63
2019-02-24T09:38:36.790Z,1546.88
2019-02-24T09:39:36.756Z,1485.00
2019-02-24T09:40:36.744Z,1501.88
2019-02-24T09:41:36.682Z,1535.63
2019-02-24T09:42:36.641Z,1636.88
2019-02-24T09:43:36.619Z,1693.13
2019-02-24T09:44:36.606Z,1755.00
2019-02-24T09:45:36.541Z,1895.63
2019-02-24T09:46:36.507Z,2064.38
2019-02-24T09:47:45.913Z,2216.25
2019-02-24T09:48:36.441Z,2373.75
2019-02-24T09:49:36.434Z,2345.63
2019-02-24T09:50:36.376Z,2199.38
2019-02-24T09:51:36.337Z,1923.75
2019-02-24T09:52:36.302Z,1710.00
2019-02-24T09:53:36.262Z,1569.38
2019-02-24T09:54:36.266Z,1468.13
2019-02-24T09:55:36.192Z,1383.75
2019-02-24T09:56:36.158Z,1327.50
2019-02-24T09:57:37.101Z,1271.25
2019-02-24T09:58:36.095Z,1215.00
2019-02-24T09:59:36.081Z,1170.00
2019-02-24T10:00:36.032Z,1141.88
2019-02-24T10:01:36.053Z,1125.00
2019-02-24T10:02:35.972Z,1108.13
2019-02-24T10:03:35.937Z,1102.50
2019-02-24T10:04:35.894Z,1091.25
2019-02-24T10:05:35.872Z,1096.88
2019-02-24T10:06:35.817Z,1091.25
2019-02-24T10:07:35.787Z,1102.50
2019-02-24T10:08:35.749Z,1108.13
2019-02-24T10:09:35.762Z,1153.13
2019-02-24T10:10:35.685Z,1282.50
2019-02-24T10:11:35.653Z,1485.00
2019-02-24T10:12:35.614Z,1665.00
2019-02-24T10:13:35.574Z,1833.75
2019-02-24T10:14:35.541Z,1935.00
2019-02-24T10:15:35.548Z,1963.13
2019-02-24T10:16:35.488Z,1985.63
2019-02-24T10:17:35.438Z,2086.88
2019-02-24T10:18:35.409Z,2137.50
2019-02-24T10:19:35.370Z,2098.13
2019-02-24T10:20:35.345Z,2137.50
2019-02-24T10:21:35.337Z,2210.63
2019-02-24T10:22:35.284Z,2233.13
2019-02-24T10:23:35.241Z,2295.00
2019-02-24T10:24:35.206Z,2345.63
2019-02-24T10:25:35.168Z,2328.75
2019-02-24T10:26:35.132Z,2311.88
2019-02-24T10:27:35.120Z,2362.50
2019-02-24T10:28:35.079Z,2390.63
2019-02-24T10:29:35.036Z,2283.75
2019-02-24T10:30:35.004Z,2165.63
2019-02-24T10:31:34.990Z,2188.13
2019-02-24T10:32:34.931Z,2272.50
2019-02-24T10:33:34.902Z,2351.25
2019-02-24T10:34:34.865Z,2407.50
2019-02-24T10:35:34.834Z,2413.13
2019-02-24T10:36:34.800Z,2497.50
2019-02-24T10:37:34.782Z,2520.00
2019-02-24T10:38:34.730Z,2441.25
2019-02-24T10:39:34.688Z,2413.13
2019-02-24T10:40:34.656Z,2401.88
2019-02-24T10:41:34.636Z,2430.00
2019-02-24T10:42:34.617Z,2441.25
2019-02-24T10:43:34.559Z,2486.25
2019-02-24T10:44:34.528Z,2503.13
2019-02-24T10:45:34.486Z,2407.50
2019-02-24T10:46:34.457Z,2401.88
2019-02-24T10:47:34.453Z,2458.13
2019-02-24T10:48:34.396Z,2413.13
2019-02-24T10:49:34.353Z,2356.88
2019-02-24T10:50:34.321Z,2283.75
2019-02-24T10:51:34.287Z,2300.63
2019-02-24T10:52:34.257Z,2424.38
2019-02-24T10:53:34.248Z,2531.25
2019-02-24T10:54:34.199Z,2542.50
2019-02-24T10:55:34.159Z,2565.00
2019-02-24T10:56:34.125Z,2581.88
2019-02-24T10:57:34.108Z,2559.38
2019-02-24T10:58:34.939Z,2469.38
2019-02-24T10:59:34.020Z,2418.75
2019-02-24T11:00:33.983Z,2458.13
2019-02-24T11:01:33.958Z,2475.00
2019-02-24T11:02:33.929Z,2491.88
2019-02-24T11:03:33.884Z,2497.50
2019-02-24T11:04:33.871Z,2536.88
2019-02-24T11:05:33.825Z,2525.63
2019-02-24T11:06:33.791Z,2514.38
2019-02-24T11:07:33.756Z,2486.25
2019-02-24T11:08:33.744Z,2486.25
2019-02-24T11:09:33.682Z,2508.75
2019-02-24T11:10:33.646Z,2452.50
2019-02-24T11:11:33.618Z,2458.13
2019-02-24T11:12:33.582Z,2475.00
2019-02-24T11:13:33.575Z,2458.13
2019-02-24T11:14:33.526Z,2503.13
2019-02-24T11:15:33.491Z,2458.13
2019-02-24T11:16:33.460Z,2452.50
2019-02-24T11:17:33.440Z,2542.50
2019-02-24T11:18:33.386Z,2531.25
2019-02-24T11:19:33.383Z,2452.50
2019-02-24T11:20:33.319Z,2390.63
2019-02-24T11:21:33.281Z,2379.38
2019-02-24T11:22:33.246Z,2356.88
2019-02-24T11:23:33.216Z,2362.50
2019-02-24T11:24:33.175Z,2396.25
2019-02-24T11:25:33.178Z,2340.00
2019-02-24T11:26:33.142Z,2323.13
2019-02-24T11:27:33.084Z,2311.88
2019-02-24T11:28:33.051Z,2300.63
2019-02-24T11:29:33.012Z,2289.38
2019-02-24T11:30:32.999Z,2233.13
2019-02-24T11:31:38.343Z,2295.00
2019-02-24T11:32:32.933Z,2323.13
2019-02-24T11:33:32.881Z,2334.38
2019-02-24T11:34:32.866Z,2368.13
2019-02-24T11:35:32.807Z,2323.13
2019-02-24T11:36:32.799Z,2317.50
2019-02-24T11:37:32.750Z,2323.13
2019-02-24T11:38:32.712Z,2328.75
2019-02-24T11:39:32.681Z,2340.00
2019-02-24T11:40:32.648Z,2306.25
2019-02-24T11:41:32.613Z,2295.00
2019-02-24T11:42:32.593Z,2311.88
2019-02-24T11:43:32.538Z,2266.88
2019-02-24T11:44:32.504Z,2250.00
2019-02-24T11:45:32.478Z,2283.75
2019-02-24T11:46:32.472Z,2244.38
2019-02-24T11:47:32.444Z,2221.88
2019-02-24T11:48:32.383Z,2272.50
2019-02-24T11:49:32.337Z,2238.75
2019-02-24T11:50:32.302Z,2266.88
2019-02-24T11:51:32.282Z,2295.00
2019-02-24T11:52:32.272Z,2266.88
2019-02-24T11:53:32.205Z,2283.75
2019-02-24T11:54:32.172Z,2182.50
2019-02-24T11:55:32.140Z,2143.13
2019-02-24T11:56:32.130Z,2238.75
2019-02-24T11:57:32.075Z,2255.63
2019-02-24T11:58:32.044Z,2250.00
2019-02-24T11:59:32.011Z,2165.63
2019-02-24T12:00:31.978Z,2137.50
2019-02-24T12:01:31.935Z,2148.75
2019-02-24T12:02:34.422Z,2137.50
2019-02-24T12:03:31.869Z,2160.00
2019-02-24T12:04:31.846Z,2126.25
2019-02-24T12:05:31.832Z,2109.38
2019-02-24T12:06:31.778Z,2103.75
2019-02-24T12:07:31.737Z,2137.50
2019-02-24T12:08:31.705Z,2171.25
2019-02-24T12:09:31.674Z,2143.13
2019-02-24T12:10:31.663Z,2137.50
2019-02-24T12:11:31.610Z,2137.50
2019-02-24T12:12:31.596Z,2109.38
2019-02-24T12:13:31.532Z,2103.75
2019-02-24T12:14:31.501Z,2120.63
2019-02-24T12:15:31.490Z,2126.25
2019-02-24T12:16:31.429Z,2109.38
2019-02-24T12:17:31.411Z,2098.13
2019-02-24T12:18:31.394Z,2131.88
2019-02-24T12:19:31.335Z,2109.38
2019-02-24T12:20:31.331Z,2070.00
2019-02-24T12:21:31.273Z,2047.50
2019-02-24T12:22:31.225Z,1991.25
2019-02-24T12:23:31.205Z,1985.63
2019-02-24T12:24:31.261Z,2013.75
2019-02-24T12:25:31.160Z,2019.38
2019-02-24T12:26:31.107Z,1991.25
2019-02-24T12:27:31.072Z,1968.75
2019-02-24T12:28:31.030Z,1963.13
2019-02-24T12:29:31.009Z,1946.25
2019-02-24T12:30:30.995Z,1968.75
2019-02-24T12:31:30.944Z,1923.75
2019-02-24T12:32:31.031Z,1861.88
2019-02-24T12:33:30.861Z,1890.00
2019-02-24T12:34:30.839Z,1923.75
2019-02-24T12:35:30.850Z,1929.38
2019-02-24T12:36:30.894Z,1906.88
2019-02-24T12:37:31.485Z,1935.00
2019-02-24T12:38:30.788Z,1940.63
2019-02-24T12:39:30.762Z,1856.25
2019-02-24T12:40:30.627Z,1805.63
2019-02-24T12:41:30.636Z,1845.00
2019-02-24T12:42:30.653Z,1833.75
2019-02-24T12:43:30.536Z,1850.63